sensor_id;sensor_type;location;lat;lon;timestamp;P1;durP1;ratioP1;P2;durP2;ratioP2
26598;SDS011;14240;51.064;16.612;2023-07-31T00:00:15;15.77;;;3.13;;
26598;SDS011;14240;51.064;16.612;2023-07-31T00:02:41;8.45;;;3.72;;
26598;SDS011;14240;51.064;16.612;2023-07-31T00:05:07;14.45;;;3.08;;
26598;SDS011;14240;51.064;16.612;2023-07-31T00:07:33;11.43;;;2.70;;
26598;SDS011;14240;51.064;16.612;2023-07-31T00:09:59;13.93;;;2.80;;
26598;SDS011;14240;51.064;16.612;2023-07-31T00:12:25;14.13;;;3.17;;
26598;SDS011;14240;51.064;16.612;2023-07-31T00:14:51;11.50;;;3.22;;
26598;SDS011;14240;51.064;16.612;2023-07-31T00:17:16;16.90;;;2.83;;
26598;SDS011;14240;51.064;16.612;2023-07-31T00:19:42;11.85;;;2.70;;
26598;SDS011;14240;51.064;16.612;2023-07-31T00:22:08;8.80;;;2.78;;
26598;SDS011;14240;51.064;16.612;2023-07-31T00:24:34;6.72;;;2.53;;
26598;SDS011;14240;51.064;16.612;2023-07-31T00:26:59;13.82;;;3.15;;
26598;SDS011;14240;51.064;16.612;2023-07-31T00:29:25;12.10;;;2.85;;
26598;SDS011;14240;51.064;16.612;2023-07-31T00:31:51;5.28;;;3.03;;
26598;SDS011;14240;51.064;16.612;2023-07-31T00:34:16;8.13;;;3.20;;
26598;SDS011;14240;51.064;16.612;2023-07-31T00:36:42;7.68;;;2.90;;
26598;SDS011;14240;51.064;16.612;2023-07-31T00:39:08;8.27;;;3.05;;
26598;SDS011;14240;51.064;16.612;2023-07-31T00:41:33;6.05;;;2.78;;
26598;SDS011;14240;51.064;16.612;2023-07-31T00:43:59;7.68;;;2.70;;
26598;SDS011;14240;51.064;16.612;2023-07-31T00:46:25;8.70;;;2.60;;
26598;SDS011;14240;51.064;16.612;2023-07-31T00:48:50;8.00;;;2.40;;
26598;SDS011;14240;51.064;16.612;2023-07-31T00:51:16;13.25;;;3.42;;
26598;SDS011;14240;51.064;16.612;2023-07-31T00:53:42;12.48;;;3.17;;
26598;SDS011;14240;51.064;16.612;2023-07-31T00:56:08;10.85;;;2.85;;
26598;SDS011;14240;51.064;16.612;2023-07-31T00:58:35;9.13;;;3.03;;
26598;SDS011;14240;51.064;16.612;2023-07-31T01:01:01;12.30;;;3.17;;
26598;SDS011;14240;51.064;16.612;2023-07-31T01:03:27;9.60;;;3.72;;
26598;SDS011;14240;51.064;16.612;2023-07-31T01:05:59;11.38;;;2.97;;
26598;SDS011;14240;51.064;16.612;2023-07-31T01:08:51;13.20;;;3.13;;
26598;SDS011;14240;51.064;16.612;2023-07-31T01:11:27;10.20;;;2.72;;
26598;SDS011;14240;51.064;16.612;2023-07-31T01:13:54;6.85;;;2.67;;
26598;SDS011;14240;51.064;16.612;2023-07-31T01:16:20;11.25;;;2.70;;
26598;SDS011;14240;51.064;16.612;2023-07-31T01:18:46;8.73;;;2.80;;
26598;SDS011;14240;51.064;16.612;2023-07-31T01:21:19;15.20;;;3.20;;
26598;SDS011;14240;51.064;16.612;2023-07-31T01:26:43;9.10;;;3.00;;
26598;SDS011;14240;51.064;16.612;2023-07-31T01:29:17;13.63;;;3.17;;
26598;SDS011;14240;51.064;16.612;2023-07-31T01:31:51;10.73;;;2.95;;
26598;SDS011;14240;51.064;16.612;2023-07-31T01:34:20;11.07;;;3.40;;
26598;SDS011;14240;51.064;16.612;2023-07-31T01:36:47;10.25;;;2.97;;
26598;SDS011;14240;51.064;16.612;2023-07-31T01:39:13;14.00;;;3.03;;
26598;SDS011;14240;51.064;16.612;2023-07-31T01:41:40;6.53;;;2.83;;
26598;SDS011;14240;51.064;16.612;2023-07-31T01:44:06;6.55;;;3.05;;
26598;SDS011;14240;51.064;16.612;2023-07-31T01:46:32;10.55;;;3.10;;
26598;SDS011;14240;51.064;16.612;2023-07-31T01:48:57;6.68;;;3.00;;
26598;SDS011;14240;51.064;16.612;2023-07-31T01:51:23;9.30;;;2.53;;
26598;SDS011;14240;51.064;16.612;2023-07-31T01:53:49;9.57;;;3.28;;
26598;SDS011;14240;51.064;16.612;2023-07-31T01:56:15;8.25;;;3.00;;
26598;SDS011;14240;51.064;16.612;2023-07-31T01:58:40;11.93;;;2.85;;
26598;SDS011;14240;51.064;16.612;2023-07-31T02:01:06;8.88;;;3.17;;
26598;SDS011;14240;51.064;16.612;2023-07-31T02:03:32;12.05;;;3.92;;
26598;SDS011;14240;51.064;16.612;2023-07-31T02:05:57;12.70;;;3.33;;
26598;SDS011;14240;51.064;16.612;2023-07-31T02:08:23;12.02;;;3.22;;
26598;SDS011;14240;51.064;16.612;2023-07-31T02:10:49;13.25;;;2.83;;
26598;SDS011;14240;51.064;16.612;2023-07-31T02:13:14;14.57;;;3.17;;
26598;SDS011;14240;51.064;16.612;2023-07-31T02:15:40;15.05;;;3.22;;
26598;SDS011;14240;51.064;16.612;2023-07-31T02:18:06;15.68;;;3.22;;
26598;SDS011;14240;51.064;16.612;2023-07-31T02:20:34;10.57;;;2.88;;
26598;SDS011;14240;51.064;16.612;2023-07-31T02:23:00;15.63;;;3.53;;
26598;SDS011;14240;51.064;16.612;2023-07-31T02:25:26;12.85;;;3.58;;
26598;SDS011;14240;51.064;16.612;2023-07-31T02:27:52;16.33;;;3.03;;
26598;SDS011;14240;51.064;16.612;2023-07-31T02:30:17;8.50;;;3.28;;
26598;SDS011;14240;51.064;16.612;2023-07-31T02:32:43;14.40;;;3.13;;
26598;SDS011;14240;51.064;16.612;2023-07-31T02:35:09;9.77;;;2.95;;
26598;SDS011;14240;51.064;16.612;2023-07-31T02:37:36;10.03;;;3.17;;
26598;SDS011;14240;51.064;16.612;2023-07-31T02:40:03;11.27;;;3.08;;
26598;SDS011;14240;51.064;16.612;2023-07-31T02:42:29;10.20;;;3.00;;
26598;SDS011;14240;51.064;16.612;2023-07-31T02:44:54;6.95;;;3.10;;
26598;SDS011;14240;51.064;16.612;2023-07-31T02:47:21;12.30;;;3.45;;
26598;SDS011;14240;51.064;16.612;2023-07-31T02:49:47;9.57;;;3.60;;
26598;SDS011;14240;51.064;16.612;2023-07-31T02:52:13;18.00;;;3.53;;
26598;SDS011;14240;51.064;16.612;2023-07-31T02:54:39;9.75;;;3.55;;
26598;SDS011;14240;51.064;16.612;2023-07-31T02:57:04;9.65;;;3.15;;
26598;SDS011;14240;51.064;16.612;2023-07-31T02:59:30;8.40;;;3.50;;
26598;SDS011;14240;51.064;16.612;2023-07-31T03:01:56;7.72;;;3.00;;
26598;SDS011;14240;51.064;16.612;2023-07-31T03:04:22;9.55;;;3.05;;
26598;SDS011;14240;51.064;16.612;2023-07-31T03:06:47;7.10;;;2.70;;
26598;SDS011;14240;51.064;16.612;2023-07-31T03:09:13;11.18;;;3.10;;
26598;SDS011;14240;51.064;16.612;2023-07-31T03:11:39;12.90;;;3.28;;
26598;SDS011;14240;51.064;16.612;2023-07-31T03:14:04;13.07;;;3.80;;
26598;SDS011;14240;51.064;16.612;2023-07-31T03:16:30;8.35;;;3.40;;
26598;SDS011;14240;51.064;16.612;2023-07-31T03:18:56;9.40;;;3.35;;
26598;SDS011;14240;51.064;16.612;2023-07-31T03:21:21;12.63;;;4.28;;
26598;SDS011;14240;51.064;16.612;2023-07-31T03:23:47;15.75;;;5.40;;
26598;SDS011;14240;51.064;16.612;2023-07-31T03:26:13;9.73;;;4.43;;
26598;SDS011;14240;51.064;16.612;2023-07-31T03:28:38;10.98;;;4.18;;
26598;SDS011;14240;51.064;16.612;2023-07-31T03:31:04;11.73;;;4.53;;
26598;SDS011;14240;51.064;16.612;2023-07-31T03:33:30;13.65;;;5.43;;
26598;SDS011;14240;51.064;16.612;2023-07-31T03:35:55;13.25;;;5.38;;
26598;SDS011;14240;51.064;16.612;2023-07-31T03:38:21;11.98;;;5.53;;
26598;SDS011;14240;51.064;16.612;2023-07-31T03:40:47;14.40;;;6.00;;
26598;SDS011;14240;51.064;16.612;2023-07-31T03:43:13;10.32;;;6.13;;
26598;SDS011;14240;51.064;16.612;2023-07-31T03:45:40;9.40;;;6.28;;
26598;SDS011;14240;51.064;16.612;2023-07-31T03:48:05;11.20;;;7.30;;
26598;SDS011;14240;51.064;16.612;2023-07-31T03:50:32;13.38;;;7.10;;
26598;SDS011;14240;51.064;16.612;2023-07-31T03:52:58;10.10;;;6.00;;
26598;SDS011;14240;51.064;16.612;2023-07-31T03:55:24;7.07;;;6.38;;
26598;SDS011;14240;51.064;16.612;2023-07-31T03:57:49;9.98;;;7.03;;
26598;SDS011;14240;51.064;16.612;2023-07-31T04:00:15;13.80;;;7.47;;
26598;SDS011;14240;51.064;16.612;2023-07-31T04:02:41;9.07;;;7.10;;
26598;SDS011;14240;51.064;16.612;2023-07-31T04:05:07;10.02;;;6.13;;
26598;SDS011;14240;51.064;16.612;2023-07-31T04:07:33;13.48;;;6.47;;
26598;SDS011;14240;51.064;16.612;2023-07-31T04:09:59;10.38;;;5.55;;
26598;SDS011;14240;51.064;16.612;2023-07-31T04:12:25;9.68;;;5.53;;
26598;SDS011;14240;51.064;16.612;2023-07-31T04:14:51;9.68;;;5.22;;
26598;SDS011;14240;51.064;16.612;2023-07-31T04:17:17;13.63;;;4.43;;
26598;SDS011;14240;51.064;16.612;2023-07-31T04:19:43;7.05;;;4.20;;
26598;SDS011;14240;51.064;16.612;2023-07-31T04:22:09;11.95;;;4.10;;
26598;SDS011;14240;51.064;16.612;2023-07-31T04:24:35;7.93;;;3.90;;
26598;SDS011;14240;51.064;16.612;2023-07-31T04:27:00;11.00;;;3.35;;
26598;SDS011;14240;51.064;16.612;2023-07-31T04:29:26;6.70;;;2.97;;
26598;SDS011;14240;51.064;16.612;2023-07-31T04:31:52;7.25;;;3.10;;
26598;SDS011;14240;51.064;16.612;2023-07-31T04:34:17;8.32;;;2.90;;
26598;SDS011;14240;51.064;16.612;2023-07-31T04:36:43;8.00;;;3.00;;
26598;SDS011;14240;51.064;16.612;2023-07-31T04:39:09;9.43;;;3.08;;
26598;SDS011;14240;51.064;16.612;2023-07-31T04:41:34;11.75;;;3.28;;
26598;SDS011;14240;51.064;16.612;2023-07-31T04:44:00;8.82;;;3.20;;
26598;SDS011;14240;51.064;16.612;2023-07-31T04:46:26;9.15;;;3.20;;
26598;SDS011;14240;51.064;16.612;2023-07-31T04:48:52;7.25;;;3.17;;
26598;SDS011;14240;51.064;16.612;2023-07-31T04:51:17;13.18;;;3.28;;
26598;SDS011;14240;51.064;16.612;2023-07-31T04:53:43;9.93;;;3.35;;
26598;SDS011;14240;51.064;16.612;2023-07-31T04:56:09;8.25;;;3.15;;
26598;SDS011;14240;51.064;16.612;2023-07-31T04:58:34;9.18;;;2.80;;
26598;SDS011;14240;51.064;16.612;2023-07-31T05:01:00;8.63;;;3.00;;
26598;SDS011;14240;51.064;16.612;2023-07-31T05:03:26;8.55;;;3.10;;
26598;SDS011;14240;51.064;16.612;2023-07-31T05:05:51;9.40;;;2.90;;
26598;SDS011;14240;51.064;16.612;2023-07-31T05:08:17;6.53;;;2.55;;
26598;SDS011;14240;51.064;16.612;2023-07-31T05:10:43;5.57;;;3.05;;
26598;SDS011;14240;51.064;16.612;2023-07-31T05:13:09;6.57;;;2.60;;
26598;SDS011;14240;51.064;16.612;2023-07-31T05:15:34;9.55;;;3.30;;
26598;SDS011;14240;51.064;16.612;2023-07-31T05:18:00;4.50;;;2.17;;
26598;SDS011;14240;51.064;16.612;2023-07-31T05:20:26;6.50;;;2.65;;
26598;SDS011;14240;51.064;16.612;2023-07-31T05:22:52;12.73;;;2.30;;
26598;SDS011;14240;51.064;16.612;2023-07-31T05:25:18;8.43;;;2.58;;
26598;SDS011;14240;51.064;16.612;2023-07-31T05:27:44;3.72;;;2.20;;
26598;SDS011;14240;51.064;16.612;2023-07-31T05:30:09;5.82;;;2.03;;
26598;SDS011;14240;51.064;16.612;2023-07-31T05:32:35;7.93;;;2.78;;
26598;SDS011;14240;51.064;16.612;2023-07-31T05:35:01;9.65;;;2.53;;
26598;SDS011;14240;51.064;16.612;2023-07-31T05:37:26;4.20;;;2.10;;
26598;SDS011;14240;51.064;16.612;2023-07-31T05:39:52;5.90;;;2.33;;
26598;SDS011;14240;51.064;16.612;2023-07-31T05:42:18;6.88;;;2.85;;
26598;SDS011;14240;51.064;16.612;2023-07-31T05:44:44;5.38;;;2.58;;
26598;SDS011;14240;51.064;16.612;2023-07-31T05:47:10;4.57;;;2.50;;
26598;SDS011;14240;51.064;16.612;2023-07-31T05:49:35;11.52;;;3.10;;
26598;SDS011;14240;51.064;16.612;2023-07-31T05:52:01;9.98;;;2.72;;
26598;SDS011;14240;51.064;16.612;2023-07-31T05:54:27;8.65;;;2.38;;
26598;SDS011;14240;51.064;16.612;2023-07-31T05:56:53;9.35;;;2.10;;
26598;SDS011;14240;51.064;16.612;2023-07-31T05:59:18;6.53;;;2.72;;
26598;SDS011;14240;51.064;16.612;2023-07-31T06:01:44;8.38;;;2.55;;
26598;SDS011;14240;51.064;16.612;2023-07-31T06:04:10;5.53;;;2.00;;
26598;SDS011;14240;51.064;16.612;2023-07-31T06:06:35;5.78;;;2.20;;
26598;SDS011;14240;51.064;16.612;2023-07-31T06:09:01;11.88;;;2.28;;
26598;SDS011;14240;51.064;16.612;2023-07-31T06:11:28;6.25;;;2.42;;
26598;SDS011;14240;51.064;16.612;2023-07-31T06:13:54;7.15;;;4.50;;
26598;SDS011;14240;51.064;16.612;2023-07-31T06:16:19;7.03;;;2.65;;
26598;SDS011;14240;51.064;16.612;2023-07-31T06:18:46;5.25;;;2.85;;
26598;SDS011;14240;51.064;16.612;2023-07-31T06:21:12;6.47;;;2.00;;
26598;SDS011;14240;51.064;16.612;2023-07-31T06:23:38;6.53;;;2.72;;
26598;SDS011;14240;51.064;16.612;2023-07-31T06:26:04;6.75;;;2.30;;
26598;SDS011;14240;51.064;16.612;2023-07-31T06:28:30;9.80;;;2.72;;
26598;SDS011;14240;51.064;16.612;2023-07-31T06:30:57;8.88;;;2.28;;
26598;SDS011;14240;51.064;16.612;2023-07-31T06:33:22;7.20;;;3.00;;
26598;SDS011;14240;51.064;16.612;2023-07-31T06:35:50;3.25;;;2.30;;
26598;SDS011;14240;51.064;16.612;2023-07-31T06:38:16;13.15;;;2.60;;
26598;SDS011;14240;51.064;16.612;2023-07-31T06:40:44;7.72;;;2.55;;
26598;SDS011;14240;51.064;16.612;2023-07-31T06:43:09;15.57;;;3.15;;
26598;SDS011;14240;51.064;16.612;2023-07-31T06:45:35;10.85;;;2.70;;
26598;SDS011;14240;51.064;16.612;2023-07-31T06:48:02;8.50;;;2.75;;
26598;SDS011;14240;51.064;16.612;2023-07-31T06:50:29;7.68;;;2.78;;
26598;SDS011;14240;51.064;16.612;2023-07-31T06:52:55;11.80;;;2.80;;
26598;SDS011;14240;51.064;16.612;2023-07-31T06:55:21;5.53;;;3.00;;
26598;SDS011;14240;51.064;16.612;2023-07-31T06:57:48;11.85;;;3.20;;
26598;SDS011;14240;51.064;16.612;2023-07-31T07:00:15;6.88;;;2.50;;
26598;SDS011;14240;51.064;16.612;2023-07-31T07:02:41;6.82;;;2.15;;
26598;SDS011;14240;51.064;16.612;2023-07-31T07:05:07;4.68;;;3.13;;
26598;SDS011;14240;51.064;16.612;2023-07-31T07:07:34;6.72;;;2.05;;
26598;SDS011;14240;51.064;16.612;2023-07-31T07:10:00;5.97;;;2.05;;
26598;SDS011;14240;51.064;16.612;2023-07-31T07:12:27;5.55;;;1.88;;
26598;SDS011;14240;51.064;16.612;2023-07-31T07:14:54;4.20;;;2.28;;
26598;SDS011;14240;51.064;16.612;2023-07-31T07:17:20;7.22;;;2.22;;
26598;SDS011;14240;51.064;16.612;2023-07-31T07:19:47;8.73;;;2.53;;
26598;SDS011;14240;51.064;16.612;2023-07-31T07:22:13;13.27;;;2.90;;
26598;SDS011;14240;51.064;16.612;2023-07-31T07:24:39;6.40;;;2.40;;
26598;SDS011;14240;51.064;16.612;2023-07-31T07:27:05;7.32;;;2.58;;
26598;SDS011;14240;51.064;16.612;2023-07-31T07:29:31;5.38;;;2.58;;
26598;SDS011;14240;51.064;16.612;2023-07-31T07:31:57;3.67;;;1.80;;
26598;SDS011;14240;51.064;16.612;2023-07-31T07:34:23;4.22;;;1.75;;
26598;SDS011;14240;51.064;16.612;2023-07-31T07:36:51;5.28;;;1.90;;
26598;SDS011;14240;51.064;16.612;2023-07-31T07:39:16;7.07;;;2.08;;
26598;SDS011;14240;51.064;16.612;2023-07-31T07:41:42;5.35;;;1.90;;
26598;SDS011;14240;51.064;16.612;2023-07-31T07:44:08;2.83;;;1.52;;
26598;SDS011;14240;51.064;16.612;2023-07-31T07:46:34;6.80;;;2.03;;
26598;SDS011;14240;51.064;16.612;2023-07-31T07:48:59;3.13;;;1.42;;
26598;SDS011;14240;51.064;16.612;2023-07-31T07:51:25;4.95;;;1.55;;
26598;SDS011;14240;51.064;16.612;2023-07-31T07:53:51;4.40;;;2.00;;
26598;SDS011;14240;51.064;16.612;2023-07-31T07:56:16;5.63;;;1.80;;
26598;SDS011;14240;51.064;16.612;2023-07-31T07:58:42;5.82;;;1.73;;
26598;SDS011;14240;51.064;16.612;2023-07-31T08:01:08;4.28;;;2.47;;
26598;SDS011;14240;51.064;16.612;2023-07-31T08:03:34;6.07;;;2.17;;
26598;SDS011;14240;51.064;16.612;2023-07-31T08:06:00;4.57;;;1.83;;
26598;SDS011;14240;51.064;16.612;2023-07-31T08:08:26;5.38;;;1.40;;
26598;SDS011;14240;51.064;16.612;2023-07-31T08:10:53;5.75;;;2.22;;
26598;SDS011;14240;51.064;16.612;2023-07-31T08:13:19;8.60;;;2.50;;
26598;SDS011;14240;51.064;16.612;2023-07-31T08:15:44;6.00;;;1.92;;
26598;SDS011;14240;51.064;16.612;2023-07-31T08:18:12;4.97;;;2.03;;
26598;SDS011;14240;51.064;16.612;2023-07-31T08:20:37;7.82;;;2.10;;
26598;SDS011;14240;51.064;16.612;2023-07-31T08:23:03;4.13;;;2.10;;
26598;SDS011;14240;51.064;16.612;2023-07-31T08:25:29;4.38;;;2.03;;
26598;SDS011;14240;51.064;16.612;2023-07-31T08:27:55;6.13;;;2.35;;
26598;SDS011;14240;51.064;16.612;2023-07-31T08:30:21;11.30;;;2.50;;
26598;SDS011;14240;51.064;16.612;2023-07-31T08:32:47;8.70;;;2.63;;
26598;SDS011;14240;51.064;16.612;2023-07-31T08:35:14;6.67;;;2.43;;
26598;SDS011;14240;51.064;16.612;2023-07-31T08:37:40;6.55;;;2.47;;
26598;SDS011;14240;51.064;16.612;2023-07-31T08:40:06;7.53;;;2.60;;
26598;SDS011;14240;51.064;16.612;2023-07-31T08:42:32;6.68;;;2.95;;
26598;SDS011;14240;51.064;16.612;2023-07-31T08:44:58;7.45;;;2.40;;
26598;SDS011;14240;51.064;16.612;2023-07-31T08:47:25;4.40;;;2.33;;
26598;SDS011;14240;51.064;16.612;2023-07-31T08:49:52;4.72;;;2.47;;
26598;SDS011;14240;51.064;16.612;2023-07-31T08:52:19;3.92;;;2.25;;
26598;SDS011;14240;51.064;16.612;2023-07-31T08:54:45;5.00;;;2.15;;
26598;SDS011;14240;51.064;16.612;2023-07-31T08:57:11;6.60;;;2.20;;
26598;SDS011;14240;51.064;16.612;2023-07-31T08:59:37;9.20;;;2.22;;
26598;SDS011;14240;51.064;16.612;2023-07-31T09:02:07;4.50;;;2.17;;
26598;SDS011;14240;51.064;16.612;2023-07-31T09:04:34;5.30;;;2.30;;
26598;SDS011;14240;51.064;16.612;2023-07-31T09:07:02;5.97;;;2.13;;
26598;SDS011;14240;51.064;16.612;2023-07-31T09:09:30;7.38;;;2.03;;
26598;SDS011;14240;51.064;16.612;2023-07-31T09:11:57;8.35;;;2.33;;
26598;SDS011;14240;51.064;16.612;2023-07-31T09:14:24;4.15;;;1.70;;
26598;SDS011;14240;51.064;16.612;2023-07-31T09:16:51;5.13;;;2.22;;
26598;SDS011;14240;51.064;16.612;2023-07-31T09:19:24;4.00;;;2.30;;
26598;SDS011;14240;51.064;16.612;2023-07-31T09:22:02;4.60;;;1.98;;
26598;SDS011;14240;51.064;16.612;2023-07-31T09:24:30;4.10;;;2.00;;
26598;SDS011;14240;51.064;16.612;2023-07-31T09:26:57;3.38;;;1.90;;
26598;SDS011;14240;51.064;16.612;2023-07-31T09:29:24;2.30;;;1.45;;
26598;SDS011;14240;51.064;16.612;2023-07-31T09:31:51;4.72;;;3.10;;
26598;SDS011;14240;51.064;16.612;2023-07-31T09:34:18;4.10;;;1.90;;
26598;SDS011;14240;51.064;16.612;2023-07-31T09:36:47;5.70;;;2.00;;
26598;SDS011;14240;51.064;16.612;2023-07-31T09:39:15;4.32;;;2.03;;
26598;SDS011;14240;51.064;16.612;2023-07-31T09:41:46;4.20;;;1.45;;
26598;SDS011;14240;51.064;16.612;2023-07-31T09:44:18;4.10;;;1.53;;
26598;SDS011;14240;51.064;16.612;2023-07-31T09:46:44;2.25;;;1.50;;
26598;SDS011;14240;51.064;16.612;2023-07-31T09:49:10;1.63;;;1.30;;
26598;SDS011;14240;51.064;16.612;2023-07-31T09:51:38;4.75;;;1.80;;
26598;SDS011;14240;51.064;16.612;2023-07-31T09:54:15;4.28;;;1.73;;
26598;SDS011;14240;51.064;16.612;2023-07-31T09:56:48;4.65;;;2.28;;
26598;SDS011;14240;51.064;16.612;2023-07-31T09:59:15;3.13;;;2.22;;
26598;SDS011;14240;51.064;16.612;2023-07-31T10:01:42;1.95;;;1.45;;
26598;SDS011;14240;51.064;16.612;2023-07-31T10:04:09;3.77;;;1.53;;
26598;SDS011;14240;51.064;16.612;2023-07-31T10:06:36;6.22;;;1.73;;
26598;SDS011;14240;51.064;16.612;2023-07-31T10:09:05;2.78;;;1.60;;
26598;SDS011;14240;51.064;16.612;2023-07-31T10:11:42;2.50;;;1.90;;
26598;SDS011;14240;51.064;16.612;2023-07-31T10:14:15;4.22;;;1.60;;
26598;SDS011;14240;51.064;16.612;2023-07-31T10:16:45;2.50;;;1.67;;
26598;SDS011;14240;51.064;16.612;2023-07-31T10:19:12;5.53;;;1.58;;
26598;SDS011;14240;51.064;16.612;2023-07-31T10:21:37;2.15;;;1.48;;
26598;SDS011;14240;51.064;16.612;2023-07-31T10:24:04;6.00;;;1.83;;
26598;SDS011;14240;51.064;16.612;2023-07-31T10:26:33;7.50;;;2.15;;
26598;SDS011;14240;51.064;16.612;2023-07-31T10:29:02;4.90;;;2.00;;
26598;SDS011;14240;51.064;16.612;2023-07-31T10:31:29;4.88;;;1.75;;
26598;SDS011;14240;51.064;16.612;2023-07-31T10:33:56;6.53;;;1.92;;
26598;SDS011;14240;51.064;16.612;2023-07-31T10:36:24;4.50;;;2.20;;
26598;SDS011;14240;51.064;16.612;2023-07-31T10:38:50;3.42;;;1.88;;
26598;SDS011;14240;51.064;16.612;2023-07-31T10:41:16;4.97;;;2.17;;
26598;SDS011;14240;51.064;16.612;2023-07-31T10:43:42;5.63;;;2.00;;
26598;SDS011;14240;51.064;16.612;2023-07-31T10:46:08;4.40;;;2.13;;
26598;SDS011;14240;51.064;16.612;2023-07-31T10:48:37;3.35;;;2.00;;
26598;SDS011;14240;51.064;16.612;2023-07-31T10:51:10;3.00;;;2.05;;
26598;SDS011;14240;51.064;16.612;2023-07-31T10:53:41;6.00;;;2.40;;
26598;SDS011;14240;51.064;16.612;2023-07-31T10:56:10;5.97;;;2.55;;
26598;SDS011;14240;51.064;16.612;2023-07-31T10:58:44;3.22;;;2.20;;
26598;SDS011;14240;51.064;16.612;2023-07-31T11:01:13;4.57;;;2.50;;
26598;SDS011;14240;51.064;16.612;2023-07-31T11:03:48;8.48;;;2.88;;
26598;SDS011;14240;51.064;16.612;2023-07-31T11:06:17;8.48;;;2.85;;
26598;SDS011;14240;51.064;16.612;2023-07-31T11:08:44;5.10;;;2.88;;
26598;SDS011;14240;51.064;16.612;2023-07-31T11:11:12;5.45;;;4.20;;
26598;SDS011;14240;51.064;16.612;2023-07-31T11:16:10;7.32;;;3.83;;
26598;SDS011;14240;51.064;16.612;2023-07-31T11:18:39;9.43;;;3.55;;
26598;SDS011;14240;51.064;16.612;2023-07-31T11:21:06;6.85;;;3.08;;
26598;SDS011;14240;51.064;16.612;2023-07-31T11:23:32;11.18;;;4.88;;
26598;SDS011;14240;51.064;16.612;2023-07-31T11:26:00;6.65;;;3.08;;
26598;SDS011;14240;51.064;16.612;2023-07-31T11:28:30;7.32;;;2.92;;
26598;SDS011;14240;51.064;16.612;2023-07-31T11:31:00;5.45;;;2.25;;
26598;SDS011;14240;51.064;16.612;2023-07-31T11:33:27;2.90;;;2.03;;
26598;SDS011;14240;51.064;16.612;2023-07-31T11:35:52;5.35;;;2.40;;
26598;SDS011;14240;51.064;16.612;2023-07-31T11:38:28;2.72;;;1.90;;
26598;SDS011;14240;51.064;16.612;2023-07-31T11:40:59;2.63;;;2.22;;
26598;SDS011;14240;51.064;16.612;2023-07-31T11:43:27;4.25;;;2.20;;
26598;SDS011;14240;51.064;16.612;2023-07-31T11:45:57;3.20;;;2.10;;
26598;SDS011;14240;51.064;16.612;2023-07-31T11:50:55;4.18;;;2.10;;
26598;SDS011;14240;51.064;16.612;2023-07-31T11:53:28;5.47;;;2.33;;
26598;SDS011;14240;51.064;16.612;2023-07-31T11:56:08;4.80;;;2.25;;
26598;SDS011;14240;51.064;16.612;2023-07-31T11:58:36;5.72;;;2.55;;
26598;SDS011;14240;51.064;16.612;2023-07-31T12:01:03;7.63;;;2.75;;
26598;SDS011;14240;51.064;16.612;2023-07-31T12:03:29;5.13;;;2.60;;
26598;SDS011;14240;51.064;16.612;2023-07-31T12:05:57;4.53;;;2.42;;
26598;SDS011;14240;51.064;16.612;2023-07-31T12:08:24;5.55;;;2.55;;
26598;SDS011;14240;51.064;16.612;2023-07-31T12:10:50;4.80;;;2.22;;
26598;SDS011;14240;51.064;16.612;2023-07-31T12:13:24;3.88;;;2.25;;
26598;SDS011;14240;51.064;16.612;2023-07-31T12:15:58;3.95;;;2.30;;
26598;SDS011;14240;51.064;16.612;2023-07-31T12:18:26;6.03;;;2.38;;
26598;SDS011;14240;51.064;16.612;2023-07-31T12:20:59;4.55;;;2.33;;
26598;SDS011;14240;51.064;16.612;2023-07-31T12:23:27;3.85;;;2.08;;
26598;SDS011;14240;51.064;16.612;2023-07-31T12:33:44;5.50;;;2.20;;
26598;SDS011;14240;51.064;16.612;2023-07-31T12:38:38;8.02;;;2.67;;
26598;SDS011;14240;51.064;16.612;2023-07-31T12:41:04;4.40;;;2.60;;
26598;SDS011;14240;51.064;16.612;2023-07-31T12:45:57;6.70;;;3.10;;
26598;SDS011;14240;51.064;16.612;2023-07-31T12:48:24;3.72;;;2.20;;
26598;SDS011;14240;51.064;16.612;2023-07-31T12:50:50;6.40;;;2.78;;
26598;SDS011;14240;51.064;16.612;2023-07-31T12:53:15;5.95;;;2.47;;
26598;SDS011;14240;51.064;16.612;2023-07-31T12:55:41;4.50;;;2.42;;
26598;SDS011;14240;51.064;16.612;2023-07-31T12:58:07;4.18;;;2.58;;
26598;SDS011;14240;51.064;16.612;2023-07-31T13:00:33;6.75;;;2.50;;
26598;SDS011;14240;51.064;16.612;2023-07-31T13:02:59;4.95;;;2.40;;
26598;SDS011;14240;51.064;16.612;2023-07-31T13:05:26;5.33;;;2.43;;
26598;SDS011;14240;51.064;16.612;2023-07-31T13:07:52;7.50;;;2.78;;
26598;SDS011;14240;51.064;16.612;2023-07-31T13:10:17;3.40;;;2.38;;
26598;SDS011;14240;51.064;16.612;2023-07-31T13:12:43;4.15;;;2.67;;
26598;SDS011;14240;51.064;16.612;2023-07-31T13:15:09;2.67;;;2.17;;
26598;SDS011;14240;51.064;16.612;2023-07-31T13:17:35;4.43;;;2.38;;
26598;SDS011;14240;51.064;16.612;2023-07-31T13:20:01;5.57;;;2.88;;
26598;SDS011;14240;51.064;16.612;2023-07-31T13:22:28;4.80;;;2.67;;
26598;SDS011;14240;51.064;16.612;2023-07-31T13:24:54;3.03;;;2.33;;
26598;SDS011;14240;51.064;16.612;2023-07-31T13:27:20;3.85;;;2.25;;
26598;SDS011;14240;51.064;16.612;2023-07-31T13:29:50;3.92;;;2.53;;
26598;SDS011;14240;51.064;16.612;2023-07-31T13:32:16;6.35;;;2.25;;
26598;SDS011;14240;51.064;16.612;2023-07-31T13:34:43;3.60;;;2.77;;
26598;SDS011;14240;51.064;16.612;2023-07-31T13:37:09;3.80;;;2.45;;
26598;SDS011;14240;51.064;16.612;2023-07-31T13:39:35;3.58;;;2.30;;
26598;SDS011;14240;51.064;16.612;2023-07-31T13:42:02;3.97;;;2.92;;
26598;SDS011;14240;51.064;16.612;2023-07-31T13:44:28;3.22;;;2.22;;
26598;SDS011;14240;51.064;16.612;2023-07-31T13:46:54;4.05;;;2.42;;
26598;SDS011;14240;51.064;16.612;2023-07-31T13:49:19;5.68;;;2.45;;
26598;SDS011;14240;51.064;16.612;2023-07-31T13:51:45;3.78;;;2.20;;
26598;SDS011;14240;51.064;16.612;2023-07-31T13:54:11;4.28;;;2.55;;
26598;SDS011;14240;51.064;16.612;2023-07-31T13:56:37;5.10;;;2.50;;
26598;SDS011;14240;51.064;16.612;2023-07-31T13:59:03;3.42;;;2.33;;
26598;SDS011;14240;51.064;16.612;2023-07-31T14:01:29;6.57;;;2.92;;
26598;SDS011;14240;51.064;16.612;2023-07-31T14:03:56;3.85;;;2.40;;
26598;SDS011;14240;51.064;16.612;2023-07-31T14:06:21;4.22;;;2.33;;
26598;SDS011;14240;51.064;16.612;2023-07-31T14:08:47;5.35;;;3.17;;
26598;SDS011;14240;51.064;16.612;2023-07-31T14:11:13;6.00;;;2.85;;
26598;SDS011;14240;51.064;16.612;2023-07-31T14:13:39;6.63;;;2.90;;
26598;SDS011;14240;51.064;16.612;2023-07-31T14:16:04;4.47;;;2.42;;
26598;SDS011;14240;51.064;16.612;2023-07-31T14:18:30;6.22;;;2.78;;
26598;SDS011;14240;51.064;16.612;2023-07-31T14:20:56;4.28;;;2.22;;
26598;SDS011;14240;51.064;16.612;2023-07-31T14:23:21;3.78;;;2.33;;
26598;SDS011;14240;51.064;16.612;2023-07-31T14:25:47;4.20;;;2.42;;
26598;SDS011;14240;51.064;16.612;2023-07-31T14:28:13;4.60;;;2.65;;
26598;SDS011;14240;51.064;16.612;2023-07-31T14:30:38;5.57;;;2.80;;
26598;SDS011;14240;51.064;16.612;2023-07-31T14:33:04;6.40;;;3.03;;
26598;SDS011;14240;51.064;16.612;2023-07-31T14:35:30;4.03;;;2.45;;
26598;SDS011;14240;51.064;16.612;2023-07-31T14:37:56;6.55;;;2.35;;
26598;SDS011;14240;51.064;16.612;2023-07-31T14:40:21;3.92;;;2.13;;
26598;SDS011;14240;51.064;16.612;2023-07-31T14:42:47;3.90;;;2.00;;
26598;SDS011;14240;51.064;16.612;2023-07-31T14:45:13;5.10;;;2.72;;
26598;SDS011;14240;51.064;16.612;2023-07-31T14:47:38;3.60;;;2.45;;